sensor_id;sensor_type;location;lat;lon;timestamp;temperature;humidity
41435;DHT22;27177;22.262;114.192;2023-04-24T00:00:43;22.00;99.90
41435;DHT22;27177;22.262;114.192;2023-04-24T00:03:11;22.00;99.90
41435;DHT22;27177;22.262;114.192;2023-04-24T00:05:38;22.00;99.90
41435;DHT22;27177;22.262;114.192;2023-04-24T00:08:05;22.00;99.90
41435;DHT22;27177;22.262;114.192;2023-04-24T00:10:32;22.00;99.90
41435;DHT22;27177;22.262;114.192;2023-04-24T00:12:58;22.00;99.90
41435;DHT22;27177;22.262;114.192;2023-04-24T00:15:24;22.00;99.90
41435;DHT22;27177;22.262;114.192;2023-04-24T00:17:51;22.00;99.90
41435;DHT22;27177;22.262;114.192;2023-04-24T00:20:18;22.00;99.90
41435;DHT22;27177;22.262;114.192;2023-04-24T00:22:45;22.00;99.90
41435;DHT22;27177;22.262;114.192;2023-04-24T00:25:11;22.00;99.90
41435;DHT22;27177;22.262;114.192;2023-04-24T00:27:37;21.90;99.90
41435;DHT22;27177;22.262;114.192;2023-04-24T00:30:04;21.90;99.90
41435;DHT22;27177;22.262;114.192;2023-04-24T00:32:31;21.90;99.90
41435;DHT22;27177;22.262;114.192;2023-04-24T00:34:58;22.00;99.90
41435;DHT22;27177;22.262;114.192;2023-04-24T00:37:24;22.00;99.90
41435;DHT22;27177;22.262;114.192;2023-04-24T00:39:50;22.00;99.90
41435;DHT22;27177;22.262;114.192;2023-04-24T00:42:17;22.00;99.90
41435;DHT22;27177;22.262;114.192;2023-04-24T00:44:43;21.90;99.90
41435;DHT22;27177;22.262;114.192;2023-04-24T00:47:10;21.90;99.90
41435;DHT22;27177;22.262;114.192;2023-04-24T00:49:36;21.90;99.90
41435;DHT22;27177;22.262;114.192;2023-04-24T00:52:03;21.90;99.90
41435;DHT22;27177;22.262;114.192;2023-04-24T00:54:34;21.90;99.90
41435;DHT22;27177;22.262;114.192;2023-04-24T00:57:02;21.90;99.90
41435;DHT22;27177;22.262;114.192;2023-04-24T00:59:28;21.80;99.90
41435;DHT22;27177;22.262;114.192;2023-04-24T01:01:55;21.80;99.90
41435;DHT22;27177;22.262;114.192;2023-04-24T01:04:21;21.80;99.90
41435;DHT22;27177;22.262;114.192;2023-04-24T01:06:48;21.80;99.90
41435;DHT22;27177;22.262;114.192;2023-04-24T01:09:15;21.80;99.90
41435;DHT22;27177;22.262;114.192;2023-04-24T01:11:42;21.70;99.90
41435;DHT22;27177;22.262;114.192;2023-04-24T01:14:08;21.80;99.90
41435;DHT22;27177;22.262;114.192;2023-04-24T01:16:35;21.80;99.90
41435;DHT22;27177;22.262;114.192;2023-04-24T01:19:04;21.70;99.90
41435;DHT22;27177;22.262;114.192;2023-04-24T01:21:31;21.80;99.90
41435;DHT22;27177;22.262;114.192;2023-04-24T01:23:59;21.70;99.90
41435;DHT22;27177;22.262;114.192;2023-04-24T01:26:25;21.70;99.90
41435;DHT22;27177;22.262;114.192;2023-04-24T01:28:51;21.70;99.90
41435;DHT22;27177;22.262;114.192;2023-04-24T01:31:18;21.80;99.90
41435;DHT22;27177;22.262;114.192;2023-04-24T01:33:44;21.80;99.90
41435;DHT22;27177;22.262;114.192;2023-04-24T01:36:11;21.90;99.90
41435;DHT22;27177;22.262;114.192;2023-04-24T01:38:37;21.90;99.90
41435;DHT22;27177;22.262;114.192;2023-04-24T01:41:03;21.90;99.90
41435;DHT22;27177;22.262;114.192;2023-04-24T01:43:30;21.90;99.90
41435;DHT22;27177;22.262;114.192;2023-04-24T01:45:56;22.00;99.90
41435;DHT22;27177;22.262;114.192;2023-04-24T01:48:23;22.10;99.90
41435;DHT22;27177;22.262;114.192;2023-04-24T01:53:25;22.20;99.90
41435;DHT22;27177;22.262;114.192;2023-04-24T01:55:53;22.20;99.90
41435;DHT22;27177;22.262;114.192;2023-04-24T02:03:30;22.30;99.90
41435;DHT22;27177;22.262;114.192;2023-04-24T02:05:56;22.30;99.90
41435;DHT22;27177;22.262;114.192;2023-04-24T02:08:22;22.30;99.90
41435;DHT22;27177;22.262;114.192;2023-04-24T02:10:49;22.30;99.90
41435;DHT22;27177;22.262;114.192;2023-04-24T02:13:15;22.40;99.90
41435;DHT22;27177;22.262;114.192;2023-04-24T02:15:42;22.50;99.90
41435;DHT22;27177;22.262;114.192;2023-04-24T02:18:08;22.60;99.90
41435;DHT22;27177;22.262;114.192;2023-04-24T02:20:34;22.70;99.90
41435;DHT22;27177;22.262;114.192;2023-04-24T02:23:01;22.80;99.90
41435;DHT22;27177;22.262;114.192;2023-04-24T02:28:02;23.00;99.90
41435;DHT22;27177;22.262;114.192;2023-04-24T02:30:29;23.10;99.90
41435;DHT22;27177;22.262;114.192;2023-04-24T02:32:56;23.10;99.90
41435;DHT22;27177;22.262;114.192;2023-04-24T02:35:22;23.10;99.90
41435;DHT22;27177;22.262;114.192;2023-04-24T02:37:48;23.10;99.90
41435;DHT22;27177;22.262;114.192;2023-04-24T02:42:42;23.10;99.90
41435;DHT22;27177;22.262;114.192;2023-04-24T02:45:08;23.10;99.90
41435;DHT22;27177;22.262;114.192;2023-04-24T02:47:35;23.10;99.90
41435;DHT22;27177;22.262;114.192;2023-04-24T02:50:02;23.10;99.90
41435;DHT22;27177;22.262;114.192;2023-04-24T02:52:28;23.30;99.90
41435;DHT22;27177;22.262;114.192;2023-04-24T02:54:55;23.20;99.90
41435;DHT22;27177;22.262;114.192;2023-04-24T02:57:21;23.20;99.90
41435;DHT22;27177;22.262;114.192;2023-04-24T02:59:47;23.30;99.90
41435;DHT22;27177;22.262;114.192;2023-04-24T03:02:21;23.30;99.90
41435;DHT22;27177;22.262;114.192;2023-04-24T03:04:48;23.20;99.90
41435;DHT22;27177;22.262;114.192;2023-04-24T03:07:17;23.20;99.90
41435;DHT22;27177;22.262;114.192;2023-04-24T03:09:46;23.10;99.90
41435;DHT22;27177;22.262;114.192;2023-04-24T03:15:44;23.20;99.90
41435;DHT22;27177;22.262;114.192;2023-04-24T03:18:12;23.20;99.90
41435;DHT22;27177;22.262;114.192;2023-04-24T03:20:38;23.20;99.90
41435;DHT22;27177;22.262;114.192;2023-04-24T03:23:05;23.20;99.90
41435;DHT22;27177;22.262;114.192;2023-04-24T03:25:31;23.10;99.90
41435;DHT22;27177;22.262;114.192;2023-04-24T03:27:57;23.10;99.90
41435;DHT22;27177;22.262;114.192;2023-04-24T03:30:24;23.10;99.90
41435;DHT22;27177;22.262;114.192;2023-04-24T03:32:50;23.00;99.90
41435;DHT22;27177;22.262;114.192;2023-04-24T03:37:52;23.00;99.90
41435;DHT22;27177;22.262;114.192;2023-04-24T03:40:18;23.00;99.90
41435;DHT22;27177;22.262;114.192;2023-04-24T03:42:44;23.00;99.90
41435;DHT22;27177;22.262;114.192;2023-04-24T03:45:11;23.00;99.90
41435;DHT22;27177;22.262;114.192;2023-04-24T03:47:37;23.10;99.90
41435;DHT22;27177;22.262;114.192;2023-04-24T03:50:03;23.00;99.90
41435;DHT22;27177;22.262;114.192;2023-04-24T03:52:29;23.10;99.90
41435;DHT22;27177;22.262;114.192;2023-04-24T03:54:56;23.10;99.90
41435;DHT22;27177;22.262;114.192;2023-04-24T03:57:22;23.10;99.90
41435;DHT22;27177;22.262;114.192;2023-04-24T03:59:48;23.00;99.90
41435;DHT22;27177;22.262;114.192;2023-04-24T04:02:15;23.00;99.90
41435;DHT22;27177;22.262;114.192;2023-04-24T04:04:41;22.90;99.90
41435;DHT22;27177;22.262;114.192;2023-04-24T04:07:07;22.90;99.90
41435;DHT22;27177;22.262;114.192;2023-04-24T04:09:34;22.80;99.90
41435;DHT22;27177;22.262;114.192;2023-04-24T04:12:01;22.70;99.90
41435;DHT22;27177;22.262;114.192;2023-04-24T04:14:27;22.70;99.90
41435;DHT22;27177;22.262;114.192;2023-04-24T04:16:54;22.60;99.90
41435;DHT22;27177;22.262;114.192;2023-04-24T04:19:20;22.50;99.90
41435;DHT22;27177;22.262;114.192;2023-04-24T04:21:46;22.50;99.90
41435;DHT22;27177;22.262;114.192;2023-04-24T04:24:17;22.40;99.90
41435;DHT22;27177;22.262;114.192;2023-04-24T04:26:44;22.40;99.90
41435;DHT22;27177;22.262;114.192;2023-04-24T04:29:13;22.40;99.90
41435;DHT22;27177;22.262;114.192;2023-04-24T04:31:39;22.30;99.90
41435;DHT22;27177;22.262;114.192;2023-04-24T04:34:05;22.40;99.90
41435;DHT22;27177;22.262;114.192;2023-04-24T04:36:33;22.40;99.90
41435;DHT22;27177;22.262;114.192;2023-04-24T04:39:02;22.40;99.90
41435;DHT22;27177;22.262;114.192;2023-04-24T04:41:40;22.40;99.90
41435;DHT22;27177;22.262;114.192;2023-04-24T04:44:07;22.40;99.90
41435;DHT22;27177;22.262;114.192;2023-04-24T04:46:34;22.50;99.90
41435;DHT22;27177;22.262;114.192;2023-04-24T04:49:02;22.50;99.90
41435;DHT22;27177;22.262;114.192;2023-04-24T04:51:29;22.60;99.90
41435;DHT22;27177;22.262;114.192;2023-04-24T04:53:55;22.80;99.90
41435;DHT22;27177;22.262;114.192;2023-04-24T04:56:21;22.80;99.90
41435;DHT22;27177;22.262;114.192;2023-04-24T04:58:48;23.00;99.90
41435;DHT22;27177;22.262;114.192;2023-04-24T05:01:14;23.10;99.90
41435;DHT22;27177;22.262;114.192;2023-04-24T05:03:41;23.10;99.90
41435;DHT22;27177;22.262;114.192;2023-04-24T05:06:07;23.10;99.90
41435;DHT22;27177;22.262;114.192;2023-04-24T05:08:36;23.00;99.90
41435;DHT22;27177;22.262;114.192;2023-04-24T05:11:02;23.00;99.90
41435;DHT22;27177;22.262;114.192;2023-04-24T05:13:28;23.10;99.90
41435;DHT22;27177;22.262;114.192;2023-04-24T05:15:54;23.10;99.90
41435;DHT22;27177;22.262;114.192;2023-04-24T05:18:21;23.20;99.90
41435;DHT22;27177;22.262;114.192;2023-04-24T05:20:47;23.20;99.90
41435;DHT22;27177;22.262;114.192;2023-04-24T05:23:13;23.20;99.90
41435;DHT22;27177;22.262;114.192;2023-04-24T05:25:40;23.20;99.90
41435;DHT22;27177;22.262;114.192;2023-04-24T05:28:07;23.30;99.90
41435;DHT22;27177;22.262;114.192;2023-04-24T05:30:33;23.40;99.90
41435;DHT22;27177;22.262;114.192;2023-04-24T05:32:59;23.60;99.90
41435;DHT22;27177;22.262;114.192;2023-04-24T05:35:25;23.70;99.90
41435;DHT22;27177;22.262;114.192;2023-04-24T05:37:51;23.80;99.90
41435;DHT22;27177;22.262;114.192;2023-04-24T05:40:18;23.90;99.90
41435;DHT22;27177;22.262;114.192;2023-04-24T05:42:44;24.10;99.90
41435;DHT22;27177;22.262;114.192;2023-04-24T05:45:10;24.10;99.90
41435;DHT22;27177;22.262;114.192;2023-04-24T05:47:44;24.10;99.90
41435;DHT22;27177;22.262;114.192;2023-04-24T05:50:11;24.00;99.90
41435;DHT22;27177;22.262;114.192;2023-04-24T05:52:37;23.90;99.90
41435;DHT22;27177;22.262;114.192;2023-04-24T05:55:04;23.70;99.90
41435;DHT22;27177;22.262;114.192;2023-04-24T05:57:30;23.60;99.90
41435;DHT22;27177;22.262;114.192;2023-04-24T05:59:57;23.60;99.90
41435;DHT22;27177;22.262;114.192;2023-04-24T06:02:23;23.50;99.90
41435;DHT22;27177;22.262;114.192;2023-04-24T06:04:49;23.50;99.90
41435;DHT22;27177;22.262;114.192;2023-04-24T06:07:16;23.60;99.90
41435;DHT22;27177;22.262;114.192;2023-04-24T06:09:43;23.70;99.90
41435;DHT22;27177;22.262;114.192;2023-04-24T06:12:09;23.70;99.90
41435;DHT22;27177;22.262;114.192;2023-04-24T06:14:35;23.70;99.90
41435;DHT22;27177;22.262;114.192;2023-04-24T06:17:01;23.70;99.90
41435;DHT22;27177;22.262;114.192;2023-04-24T06:19:28;23.80;99.90
41435;DHT22;27177;22.262;114.192;2023-04-24T06:21:54;23.90;99.90
41435;DHT22;27177;22.262;114.192;2023-04-24T06:24:21;23.90;99.90
41435;DHT22;27177;22.262;114.192;2023-04-24T06:26:47;24.00;99.90
41435;DHT22;27177;22.262;114.192;2023-04-24T06:29:13;24.10;99.90
41435;DHT22;27177;22.262;114.192;2023-04-24T06:31:39;24.20;99.90
41435;DHT22;27177;22.262;114.192;2023-04-24T06:34:06;24.20;99.90
41435;DHT22;27177;22.262;114.192;2023-04-24T06:36:34;24.10;99.90
41435;DHT22;27177;22.262;114.192;2023-04-24T06:39:01;24.10;99.90
41435;DHT22;27177;22.262;114.192;2023-04-24T06:41:28;24.00;99.90
41435;DHT22;27177;22.262;114.192;2023-04-24T06:43:54;23.90;99.90
41435;DHT22;27177;22.262;114.192;2023-04-24T06:46:21;23.90;99.90
41435;DHT22;27177;22.262;114.192;2023-04-24T06:48:52;23.80;99.90
41435;DHT22;27177;22.262;114.192;2023-04-24T06:51:24;23.70;99.90
41435;DHT22;27177;22.262;114.192;2023-04-24T06:53:51;23.70;99.90
41435;DHT22;27177;22.262;114.192;2023-04-24T06:56:17;23.60;99.90
41435;DHT22;27177;22.262;114.192;2023-04-24T06:58:44;23.60;99.90
41435;DHT22;27177;22.262;114.192;2023-04-24T07:01:11;23.50;99.90
41435;DHT22;27177;22.262;114.192;2023-04-24T07:03:37;23.50;99.90
41435;DHT22;27177;22.262;114.192;2023-04-24T07:06:04;23.50;99.90
41435;DHT22;27177;22.262;114.192;2023-04-24T07:08:30;23.60;99.90
41435;DHT22;27177;22.262;114.192;2023-04-24T07:10:56;23.60;99.90
41435;DHT22;27177;22.262;114.192;2023-04-24T07:13:23;23.50;99.90
41435;DHT22;27177;22.262;114.192;2023-04-24T07:15:49;23.60;99.90
41435;DHT22;27177;22.262;114.192;2023-04-24T07:18:18;23.50;99.90
41435;DHT22;27177;22.262;114.192;2023-04-24T07:20:44;23.60;99.90
41435;DHT22;27177;22.262;114.192;2023-04-24T07:23:10;23.60;99.90
41435;DHT22;27177;22.262;114.192;2023-04-24T07:25:36;23.70;99.90
41435;DHT22;27177;22.262;114.192;2023-04-24T07:28:04;23.70;99.90
41435;DHT22;27177;22.262;114.192;2023-04-24T07:30:30;23.80;99.90
41435;DHT22;27177;22.262;114.192;2023-04-24T07:32:58;23.80;99.90
41435;DHT22;27177;22.262;114.192;2023-04-24T07:35:25;23.90;99.90
41435;DHT22;27177;22.262;114.192;2023-04-24T07:37:55;23.90;99.90
41435;DHT22;27177;22.262;114.192;2023-04-24T07:40:21;23.90;99.90
41435;DHT22;27177;22.262;114.192;2023-04-24T07:42:47;23.90;99.90
41435;DHT22;27177;22.262;114.192;2023-04-24T07:45:14;23.80;99.90
41435;DHT22;27177;22.262;114.192;2023-04-24T07:47:43;23.80;99.90
41435;DHT22;27177;22.262;114.192;2023-04-24T07:50:11;23.80;99.90
41435;DHT22;27177;22.262;114.192;2023-04-24T07:55:45;23.60;99.90
41435;DHT22;27177;22.262;114.192;2023-04-24T07:58:11;23.60;99.90
41435;DHT22;27177;22.262;114.192;2023-04-24T08:00:38;23.60;99.90
41435;DHT22;27177;22.262;114.192;2023-04-24T08:03:04;23.60;99.90
41435;DHT22;27177;22.262;114.192;2023-04-24T08:05:30;23.60;99.90
41435;DHT22;27177;22.262;114.192;2023-04-24T08:07:56;23.60;99.90
41435;DHT22;27177;22.262;114.192;2023-04-24T08:10:23;23.60;99.90
41435;DHT22;27177;22.262;114.192;2023-04-24T08:12:49;23.50;99.90
41435;DHT22;27177;22.262;114.192;2023-04-24T08:15:16;23.50;99.90
41435;DHT22;27177;22.262;114.192;2023-04-24T08:17:42;23.50;99.90
41435;DHT22;27177;22.262;114.192;2023-04-24T08:20:09;23.40;99.90
41435;DHT22;27177;22.262;114.192;2023-04-24T08:22:39;23.40;99.90
41435;DHT22;27177;22.262;114.192;2023-04-24T08:25:06;23.40;99.90
41435;DHT22;27177;22.262;114.192;2023-04-24T08:27:32;23.40;99.90
41435;DHT22;27177;22.262;114.192;2023-04-24T08:29:59;23.30;99.90
41435;DHT22;27177;22.262;114.192;2023-04-24T08:32:26;23.30;99.90
41435;DHT22;27177;22.262;114.192;2023-04-24T08:34:55;23.30;99.90
41435;DHT22;27177;22.262;114.192;2023-04-24T08:37:22;23.30;99.90
41435;DHT22;27177;22.262;114.192;2023-04-24T08:39:49;23.30;99.90
41435;DHT22;27177;22.262;114.192;2023-04-24T08:42:17;23.30;99.90
41435;DHT22;27177;22.262;114.192;2023-04-24T08:44:43;23.30;99.90
41435;DHT22;27177;22.262;114.192;2023-04-24T08:47:10;23.30;99.90
41435;DHT22;27177;22.262;114.192;2023-04-24T08:49:36;23.30;99.90
41435;DHT22;27177;22.262;114.192;2023-04-24T08:52:04;23.30;99.90
41435;DHT22;27177;22.262;114.192;2023-04-24T08:54:36;23.30;99.90
41435;DHT22;27177;22.262;114.192;2023-04-24T08:57:05;23.30;99.90
41435;DHT22;27177;22.262;114.192;2023-04-24T08:59:33;23.30;99.90
41435;DHT22;27177;22.262;114.192;2023-04-24T09:02:00;23.30;99.90
41435;DHT22;27177;22.262;114.192;2023-04-24T09:04:27;23.30;99.90
41435;DHT22;27177;22.262;114.192;2023-04-24T09:06:55;23.30;99.90
41435;DHT22;27177;22.262;114.192;2023-04-24T09:09:21;23.30;99.90
41435;DHT22;27177;22.262;114.192;2023-04-24T09:11:49;23.30;99.90
41435;DHT22;27177;22.262;114.192;2023-04-24T09:14:15;23.30;99.90
41435;DHT22;27177;22.262;114.192;2023-04-24T09:16:42;23.40;99.90
41435;DHT22;27177;22.262;114.192;2023-04-24T09:19:08;23.30;99.90
41435;DHT22;27177;22.262;114.192;2023-04-24T09:21:35;23.30;99.90
41435;DHT22;27177;22.262;114.192;2023-04-24T09:24:03;23.30;99.90
41435;DHT22;27177;22.262;114.192;2023-04-24T09:26:30;23.30;99.90
41435;DHT22;27177;22.262;114.192;2023-04-24T09:28:59;23.30;99.90
41435;DHT22;27177;22.262;114.192;2023-04-24T09:31:27;23.20;99.90
41435;DHT22;27177;22.262;114.192;2023-04-24T09:33:54;23.20;99.90
41435;DHT22;27177;22.262;114.192;2023-04-24T09:36:28;23.20;99.90
41435;DHT22;27177;22.262;114.192;2023-04-24T09:38:58;23.20;99.90
41435;DHT22;27177;22.262;114.192;2023-04-24T09:41:24;23.10;99.90
41435;DHT22;27177;22.262;114.192;2023-04-24T09:43:53;23.10;99.90
41435;DHT22;27177;22.262;114.192;2023-04-24T09:46:19;23.00;99.90
41435;DHT22;27177;22.262;114.192;2023-04-24T09:48:47;22.90;99.90
41435;DHT22;27177;22.262;114.192;2023-04-24T09:51:14;23.00;99.90
41435;DHT22;27177;22.262;114.192;2023-04-24T09:53:45;22.90;99.90
41435;DHT22;27177;22.262;114.192;2023-04-24T09:56:11;22.90;99.90
41435;DHT22;27177;22.262;114.192;2023-04-24T10:01:16;22.80;99.90
41435;DHT22;27177;22.262;114.192;2023-04-24T10:03:55;22.80;99.90
41435;DHT22;27177;22.262;114.192;2023-04-24T10:06:33;22.80;99.90
41435;DHT22;27177;22.262;114.192;2023-04-24T10:08:59;22.80;99.90
41435;DHT22;27177;22.262;114.192;2023-04-24T10:11:29;22.70;99.90
41435;DHT22;27177;22.262;114.192;2023-04-24T10:13:56;22.80;99.90
41435;DHT22;27177;22.262;114.192;2023-04-24T10:16:23;22.80;99.90
41435;DHT22;27177;22.262;114.192;2023-04-24T10:18:49;22.80;99.90
41435;DHT22;27177;22.262;114.192;2023-04-24T10:21:17;22.80;99.90
41435;DHT22;27177;22.262;114.192;2023-04-24T10:23:43;22.80;99.90
41435;DHT22;27177;22.262;114.192;2023-04-24T10:26:12;22.80;99.90
41435;DHT22;27177;22.262;114.192;2023-04-24T10:28:46;22.70;99.90
41435;DHT22;27177;22.262;114.192;2023-04-24T10:31:13;22.60;99.90
41435;DHT22;27177;22.262;114.192;2023-04-24T10:33:43;22.50;99.90
41435;DHT22;27177;22.262;114.192;2023-04-24T10:36:09;22.50;99.90
41435;DHT22;27177;22.262;114.192;2023-04-24T10:38:36;22.40;99.90
41435;DHT22;27177;22.262;114.192;2023-04-24T10:41:09;22.40;99.90
41435;DHT22;27177;22.262;114.192;2023-04-24T10:43:37;22.40;99.90
41435;DHT22;27177;22.262;114.192;2023-04-24T10:46:06;22.40;99.90
41435;DHT22;27177;22.262;114.192;2023-04-24T10:48:32;22.30;99.90
41435;DHT22;27177;22.262;114.192;2023-04-24T10:50:59;22.20;99.90
41435;DHT22;27177;22.262;114.192;2023-04-24T10:53:29;22.20;99.90
41435;DHT22;27177;22.262;114.192;2023-04-24T10:58:35;22.10;99.90
41435;DHT22;27177;22.262;114.192;2023-04-24T11:01:01;22.10;99.90
41435;DHT22;27177;22.262;114.192;2023-04-24T11:03:29;22.10;99.90
41435;DHT22;27177;22.262;114.192;2023-04-24T11:08:23;22.10;99.90
41435;DHT22;27177;22.262;114.192;2023-04-24T11:13:23;22.00;99.90
41435;DHT22;27177;22.262;114.192;2023-04-24T11:18:38;22.00;99.90
41435;DHT22;27177;22.262;114.192;2023-04-24T11:21:17;22.00;99.90
41435;DHT22;27177;22.262;114.192;2023-04-24T11:23:45;22.00;99.90
41435;DHT22;27177;22.262;114.192;2023-04-24T11:26:33;22.00;99.90
41435;DHT22;27177;22.262;114.192;2023-04-24T11:29:07;21.90;99.90
41435;DHT22;27177;22.262;114.192;2023-04-24T11:31:37;21.90;99.90
41435;DHT22;27177;22.262;114.192;2023-04-24T11:34:08;21.90;99.90
41435;DHT22;27177;22.262;114.192;2023-04-24T11:36:34;21.90;99.90
41435;DHT22;27177;22.262;114.192;2023-04-24T11:39:01;21.90;99.90
41435;DHT22;27177;22.262;114.192;2023-04-24T11:41:27;21.80;99.90
41435;DHT22;27177;22.262;114.192;2023-04-24T11:43:54;21.80;99.90
41435;DHT22;27177;22.262;114.192;2023-04-24T11:46:21;21.80;99.90
41435;DHT22;27177;22.262;114.192;2023-04-24T11:48:48;21.80;99.90
41435;DHT22;27177;22.262;114.192;2023-04-24T11:51:14;21.80;99.90
41435;DHT22;27177;22.262;114.192;2023-04-24T11:53:40;21.80;99.90
41435;DHT22;27177;22.262;114.192;2023-04-24T11:56:08;21.80;99.90
41435;DHT22;27177;22.262;114.192;2023-04-24T11:58:35;21.90;99.90
41435;DHT22;27177;22.262;114.192;2023-04-24T12:01:02;21.80;99.90
41435;DHT22;27177;22.262;114.192;2023-04-24T12:03:28;21.80;99.90
41435;DHT22;27177;22.262;114.192;2023-04-24T12:06:07;21.80;99.90
41435;DHT22;27177;22.262;114.192;2023-04-24T12:08:33;21.80;99.90
41435;DHT22;27177;22.262;114.192;2023-04-24T12:11:00;21.80;99.90
41435;DHT22;27177;22.262;114.192;2023-04-24T12:13:27;21.80;99.90
41435;DHT22;27177;22.262;114.192;2023-04-24T12:15:53;21.80;99.90
41435;DHT22;27177;22.262;114.192;2023-04-24T12:18:23;21.80;99.90
41435;DHT22;27177;22.262;114.192;2023-04-24T12:20:49;21.80;99.90
41435;DHT22;27177;22.262;114.192;2023-04-24T12:23:16;21.80;99.90
41435;DHT22;27177;22.262;114.192;2023-04-24T12:25:43;21.80;99.90
41435;DHT22;27177;22.262;114.192;2023-04-24T12:28:10;21.80;99.90
41435;DHT22;27177;22.262;114.192;2023-04-24T12:30:40;21.70;99.90
41435;DHT22;27177;22.262;114.192;2023-04-24T12:33:07;21.70;99.90
41435;DHT22;27177;22.262;114.192;2023-04-24T12:35:33;21.70;99.90
41435;DHT22;27177;22.262;114.192;2023-04-24T12:38:07;21.70;99.90
41435;DHT22;27177;22.262;114.192;2023-04-24T12:40:34;21.70;99.90
41435;DHT22;27177;22.262;114.192;2023-04-24T12:43:12;21.70;99.90
41435;DHT22;27177;22.262;114.192;2023-04-24T12:45:38;21.70;99.90
41435;DHT22;27177;22.262;114.192;2023-04-24T12:48:05;21.70;99.90
41435;DHT22;27177;22.262;114.192;2023-04-24T12:50:31;21.70;99.90
41435;DHT22;27177;22.262;114.192;2023-04-24T12:52:57;21.70;99.90
41435;DHT22;27177;22.262;114.192;2023-04-24T12:55:23;21.70;99.90
41435;DHT22;27177;22.262;114.192;2023-04-24T12:57:50;21.70;99.90
41435;DHT22;27177;22.262;114.192;2023-04-24T13:00:17;21.70;99.90
41435;DHT22;27177;22.262;114.192;2023-04-24T13:02:43;21.70;99.90
41435;DHT22;27177;22.262;114.192;2023-04-24T13:05:10;21.70;99.90
41435;DHT22;27177;22.262;114.192;2023-04-24T13:07:37;21.70;99.90
41435;DHT22;27177;22.262;114.192;2023-04-24T13:10:03;21.70;99.90
41435;DHT22;27177;22.262;114.192;2023-04-24T13:12:29;21.70;99.90
41435;DHT22;27177;22.262;114.192;2023-04-24T13:14:56;21.70;99.90
41435;DHT22;27177;22.262;114.192;2023-04-24T13:17:22;21.70;99.90
41435;DHT22;27177;22.262;114.192;2023-04-24T13:19:49;21.70;99.90
41435;DHT22;27177;22.262;114.192;2023-04-24T13:22:16;21.70;99.90
41435;DHT22;27177;22.262;114.192;2023-04-24T13:24:44;21.70;99.90
41435;DHT22;27177;22.262;114.192;2023-04-24T13:27:10;21.70;99.90
41435;DHT22;27177;22.262;114.192;2023-04-24T13:29:37;21.70;99.90
41435;DHT22;27177;22.262;114.192;2023-04-24T13:32:03;21.70;99.90
41435;DHT22;27177;22.262;114.192;2023-04-24T13:34:29;21.70;99.90
41435;DHT22;27177;22.262;114.192;2023-04-24T13:36:56;21.70;99.90
41435;DHT22;27177;22.262;114.192;2023-04-24T13:39:23;21.70;99.90
41435;DHT22;27177;22.262;114.192;2023-04-24T13:41:49;21.70;99.90
41435;DHT22;27177;22.262;114.192;2023-04-24T13:44:16;21.70;99.90
41435;DHT22;27177;22.262;114.192;2023-04-24T13:46:43;21.70;99.90
41435;DHT22;27177;22.262;114.192;2023-04-24T13:49:11;21.70;99.90
41435;DHT22;27177;22.262;114.192;2023-04-24T13:51:37;21.70;99.90
41435;DHT22;27177;22.262;114.192;2023-04-24T13:54:04;21.70;99.90
41435;DHT22;27177;22.262;114.192;2023-04-24T13:56:30;21.70;99.90
41435;DHT22;27177;22.262;114.192;2023-04-24T13:58:57;21.70;99.90
41435;DHT22;27177;22.262;114.192;2023-04-24T14:01:23;21.80;99.90
41435;DHT22;27177;22.262;114.192;2023-04-24T14:03:52;21.80;99.90
41435;DHT22;27177;22.262;114.192;2023-04-24T14:06:19;21.80;99.90
41435;DHT22;27177;22.262;114.192;2023-04-24T14:08:45;21.80;99.90
41435;DHT22;27177;22.262;114.192;2023-04-24T14:11:11;21.80;99.90
41435;DHT22;27177;22.262;114.192;2023-04-24T14:13:38;21.80;99.90
41435;DHT22;27177;22.262;114.192;2023-04-24T14:16:05;21.80;99.90
41435;DHT22;27177;22.262;114.192;2023-04-24T14:18:32;21.80;99.90
41435;DHT22;27177;22.262;114.192;2023-04-24T14:20:58;21.90;99.90
41435;DHT22;27177;22.262;114.192;2023-04-24T14:23:26;21.90;99.90
41435;DHT22;27177;22.262;114.192;2023-04-24T14:25:52;21.90;99.90
41435;DHT22;27177;22.262;114.192;2023-04-24T14:30:54;21.90;99.90
41435;DHT22;27177;22.262;114.192;2023-04-24T14:35:47;21.90;99.90
41435;DHT22;27177;22.262;114.192;2023-04-24T14:38:14;22.00;99.90
41435;DHT22;27177;22.262;114.192;2023-04-24T14:53:37;22.10;99.90
41435;DHT22;27177;22.262;114.192;2023-04-24T14:56:04;22.10;99.90
41435;DHT22;27177;22.262;114.192;2023-04-24T14:58:30;22.00;99.90
41435;DHT22;27177;22.262;114.192;2023-04-24T15:00:57;22.00;99.90
41435;DHT22;27177;22.262;114.192;2023-04-24T15:03:23;22.00;99.90
41435;DHT22;27177;22.262;114.192;2023-04-24T15:11:00;22.00;99.90
41435;DHT22;27177;22.262;114.192;2023-04-24T15:18:37;22.00;99.90
41435;DHT22;27177;22.262;114.192;2023-04-24T15:23:39;22.00;99.90
41435;DHT22;27177;22.262;114.192;2023-04-24T15:26:06;22.00;99.90
41435;DHT22;27177;22.262;114.192;2023-04-24T15:28:33;22.00;99.90
41435;DHT22;27177;22.262;114.192;2023-04-24T15:30:59;22.00;99.90
41435;DHT22;27177;22.262;114.192;2023-04-24T15:33:26;22.00;99.90
41435;DHT22;27177;22.262;114.192;2023-04-24T15:35:52;22.00;99.90
41435;DHT22;27177;22.262;114.192;2023-04-24T15:38:18;21.90;99.90
41435;DHT22;27177;22.262;114.192;2023-04-24T15:40:45;21.90;99.90
41435;DHT22;27177;22.262;114.192;2023-04-24T15:43:11;21.90;99.90
41435;DHT22;27177;22.262;114.192;2023-04-24T15:45:37;21.90;99.90
41435;DHT22;27177;22.262;114.192;2023-04-24T15:48:04;22.00;99.90
41435;DHT22;27177;22.262;114.192;2023-04-24T15:50:30;21.90;99.90
41435;DHT22;27177;22.262;114.192;2023-04-24T15:52:57;21.90;99.90
41435;DHT22;27177;22.262;114.192;2023-04-24T15:55:23;21.90;99.90
41435;DHT22;27177;22.262;114.192;2023-04-24T15:57:50;21.90;99.90
41435;DHT22;27177;22.262;114.192;2023-04-24T16:00:16;21.90;99.90
41435;DHT22;27177;22.262;114.192;2023-04-24T16:02:42;22.00;99.90
41435;DHT22;27177;22.262;114.192;2023-04-24T16:05:09;22.00;99.90
41435;DHT22;27177;22.262;114.192;2023-04-24T16:07:36;22.00;99.90